createdAt,value
2019-04-25T00:03:03.412Z,33.95
2019-04-25T00:08:08.240Z,29.77
2019-04-25T00:13:12.465Z,28.52
2019-04-25T00:18:16.353Z,26.33
2019-04-25T00:23:21.826Z,31.45
2019-04-25T00:28:25.707Z,33.13
2019-04-25T00:33:29.578Z,32.65
2019-04-25T00:38:33.458Z,32.00
2019-04-25T00:43:37.357Z,50.83
2019-04-25T00:48:42.404Z,37.08
2019-04-25T00:53:46.969Z,40.40
2019-04-25T00:58:53.136Z,31.42
2019-04-25T01:03:58.001Z,28.70
2019-04-25T01:09:02.173Z,34.43
2019-04-25T01:14:08.328Z,31.45
2019-04-25T01:19:13.417Z,39.05
2019-04-25T01:24:17.893Z,29.75
2019-04-25T01:29:23.397Z,28.05
2019-04-25T01:34:29.084Z,27.77
2019-04-25T01:39:40.455Z,33.33
2019-04-25T01:44:51.782Z,32.42
2019-04-25T01:49:56.598Z,36.53
2019-04-25T01:55:00.642Z,34.20
2019-04-25T02:00:06.435Z,35.68
2019-04-25T02:05:10.608Z,31.20
2019-04-25T02:10:14.574Z,32.25
2019-04-25T02:15:20.028Z,25.85
2019-04-25T02:20:23.941Z,29.63
2019-04-25T02:25:27.957Z,32.20
2019-04-25T02:30:31.882Z,30.00
2019-04-25T02:35:35.805Z,33.90
2019-04-25T02:40:39.726Z,38.67
2019-04-25T02:45:50.735Z,33.28
2019-04-25T02:51:07.895Z,33.20
2019-04-25T02:56:27.698Z,33.67
2019-04-25T03:01:22.844Z,35.28
2019-04-25T03:06:24.967Z,34.25
2019-04-25T03:11:29.517Z,35.38
2019-04-25T03:16:34.737Z,34.27
2019-04-25T03:21:40.407Z,32.40
2019-04-25T03:26:44.391Z,33.18
2019-04-25T03:31:48.361Z,39.35
2019-04-25T03:36:53.636Z,34.90
2019-04-25T03:41:57.798Z,28.40
2019-04-25T03:47:05.271Z,33.88
2019-04-25T03:52:07.975Z,34.38
2019-04-25T03:57:14.465Z,34.70
2019-04-25T04:02:17.670Z,36.45
2019-04-25T04:07:21.594Z,36.15
2019-04-25T04:12:25.494Z,38.67
2019-04-25T04:17:34.008Z,38.98
2019-04-25T04:22:43.762Z,39.67
2019-04-25T04:27:47.806Z,76.02
2019-04-25T04:32:51.733Z,45.50
2019-04-25T04:37:55.653Z,37.33
2019-04-25T04:42:59.566Z,29.92
2019-04-25T04:48:03.494Z,35.52
2019-04-25T04:53:07.415Z,44.48
2019-04-25T04:58:11.329Z,64.40
2019-04-25T05:03:16.929Z,67.05
2019-04-25T05:08:25.648Z,44.25
2019-04-25T05:13:29.607Z,45.07
2019-04-25T05:18:38.094Z,65.20
2019-04-25T05:23:38.957Z,47.75
2019-04-25T05:28:44.406Z,39.53
2019-04-25T05:33:48.516Z,38.05
2019-04-25T05:38:53.851Z,35.40
2019-04-25T05:43:57.880Z,37.03
2019-04-25T05:49:01.690Z,41.20
2019-04-25T05:54:05.577Z,43.73
2019-04-25T05:59:09.493Z,37.73
2019-04-25T06:04:13.907Z,39.30
2019-04-25T06:09:38.025Z,32.05
2019-04-25T06:14:43.306Z,27.70
2019-04-25T06:19:48.956Z,30.80
2019-04-25T06:24:54.413Z,40.25
2019-04-25T06:30:00.990Z,33.00
2019-04-25T06:35:06.663Z,27.48
2019-04-25T06:40:11.557Z,32.25
2019-04-25T06:45:34.477Z,28.73
2019-04-25T06:50:38.473Z,25.55
2019-04-25T06:55:43.404Z,21.20
2019-04-25T07:00:58.173Z,21.42
2019-04-25T07:05:53.629Z,17.80
2019-04-25T07:10:57.589Z,11.25
2019-04-25T07:16:03.049Z,18.48
2019-04-25T07:21:07.153Z,19.27
2019-04-25T07:26:13.536Z,23.47
2019-04-25T07:31:31.197Z,24.23
2019-04-25T07:36:36.165Z,17.00
2019-04-25T07:41:40.171Z,17.17
2019-04-25T07:46:44.109Z,14.45
2019-04-25T07:51:48.090Z,16.90
2019-04-25T07:56:54.807Z,14.23
2019-04-25T08:01:57.562Z,16.17
2019-04-25T08:07:01.541Z,18.82
2019-04-25T08:12:05.566Z,12.50
2019-04-25T08:17:14.501Z,18.05
2019-04-25T08:27:23.403Z,13.08
2019-04-25T08:32:27.515Z,11.50
2019-04-25T08:37:31.760Z,14.35
2019-04-25T08:42:36.683Z,19.60
2019-04-25T08:47:41.843Z,14.05
2019-04-25T08:52:46.281Z,18.52
2019-04-25T08:57:57.754Z,11.38
2019-04-25T09:03:03.883Z,15.50
2019-04-25T09:08:08.940Z,8.63
2019-04-25T09:13:13.453Z,17.90
2019-04-25T09:18:17.613Z,11.57
2019-04-25T09:23:21.488Z,12.30
2019-04-25T09:28:25.381Z,10.82
2019-04-25T09:33:29.251Z,13.32
2019-04-25T09:38:34.797Z,13.50
2019-04-25T09:43:38.702Z,11.78
2019-04-25T09:48:46.897Z,9.23
2019-04-25T09:53:54.004Z,13.38
2019-04-25T09:59:00.760Z,13.75
2019-04-25T10:04:04.920Z,14.90
2019-04-25T10:09:10.392Z,7.35
2019-04-25T10:14:39.019Z,17.42
2019-04-25T10:19:43.497Z,12.90
2019-04-25T10:24:59.965Z,14.90
2019-04-25T10:29:56.540Z,6.83
2019-04-25T10:34:58.701Z,10.30
2019-04-25T10:40:04.235Z,13.68
2019-04-25T10:45:20.408Z,11.12
2019-04-25T10:50:15.718Z,8.23
2019-04-25T10:55:19.640Z,13.05
2019-04-25T11:00:28.585Z,15.03
2019-04-25T11:05:34.279Z,14.55
2019-04-25T11:10:38.390Z,10.85
2019-04-25T11:15:47.038Z,10.95
2019-04-25T11:20:51.271Z,11.73
2019-04-25T11:25:56.826Z,13.58
2019-04-25T11:31:00.957Z,15.75
2019-04-25T11:36:05.586Z,14.00
2019-04-25T11:41:11.166Z,9.90
2019-04-25T11:46:16.406Z,7.47
2019-04-25T11:51:23.854Z,13.75
2019-04-25T11:56:26.537Z,8.75
2019-04-25T12:01:31.281Z,11.30
2019-04-25T12:06:35.305Z,8.10
2019-04-25T12:11:39.341Z,7.33
2019-04-25T12:16:46.155Z,10.10
2019-04-25T12:21:49.032Z,10.53
2019-04-25T12:26:54.819Z,10.15
2019-04-25T12:31:58.730Z,9.58
2019-04-25T12:37:03.842Z,9.93
2019-04-25T12:42:08.124Z,6.90
2019-04-25T12:47:25.563Z,7.72
2019-04-25T12:52:29.594Z,9.63
2019-04-25T12:57:33.520Z,9.80
2019-04-25T13:02:37.650Z,9.13
2019-04-25T13:07:41.788Z,11.45
2019-04-25T13:12:45.915Z,8.33
2019-04-25T13:17:49.943Z,10.50
2019-04-25T13:22:53.976Z,5.08
2019-04-25T13:27:59.603Z,15.38
2019-04-25T13:33:05.312Z,7.15
2019-04-25T13:38:09.643Z,11.22
2019-04-25T13:43:14.085Z,8.48
2019-04-25T13:48:18.010Z,10.35
2019-04-25T13:53:23.310Z,8.15
2019-04-25T13:58:30.546Z,6.58
2019-04-25T14:03:34.047Z,6.75
2019-04-25T14:08:39.451Z,4.87
2019-04-25T14:13:43.356Z,9.55
2019-04-25T14:18:57.853Z,10.30
2019-04-25T14:24:01.986Z,11.78
2019-04-25T14:29:06.097Z,11.00
2019-04-25T14:34:10.043Z,10.43
2019-04-25T14:39:16.021Z,19.98
2019-04-25T14:44:19.946Z,10.20
2019-04-25T14:49:24.041Z,10.53
2019-04-25T14:54:30.580Z,9.18
2019-04-25T14:59:34.899Z,9.45
2019-04-25T15:04:38.826Z,9.78
2019-04-25T15:09:42.778Z,16.80
2019-04-25T15:14:53.031Z,12.50
2019-04-25T15:19:57.884Z,11.18
2019-04-25T15:25:01.931Z,12.63
2019-04-25T15:30:08.803Z,10.30
2019-04-25T15:35:14.369Z,13.95
2019-04-25T15:40:34.886Z,8.48
2019-04-25T15:45:43.067Z,41.37
2019-04-25T15:50:47.043Z,16.52
2019-04-25T15:55:50.966Z,12.33
2019-04-25T16:00:55.405Z,14.23
2019-04-25T16:05:59.437Z,16.93
2019-04-25T16:11:03.362Z,8.45
2019-04-25T16:16:07.698Z,8.90
2019-04-25T16:21:11.931Z,14.98
2019-04-25T16:26:15.860Z,9.53
2019-04-25T16:31:21.296Z,13.70
2019-04-25T16:36:27.245Z,13.55
2019-04-25T16:41:33.734Z,14.15
2019-04-25T16:46:40.297Z,11.88
2019-04-25T16:51:44.301Z,14.28
2019-04-25T16:56:48.327Z,17.25
2019-04-25T17:01:52.194Z,17.10
2019-04-25T17:06:56.090Z,22.42
2019-04-25T17:11:59.976Z,24.98
2019-04-25T17:17:11.150Z,20.40
2019-04-25T17:22:15.041Z,21.55
2019-04-25T17:27:19.642Z,13.50
2019-04-25T17:32:25.121Z,15.95
2019-04-25T17:37:31.029Z,18.30
2019-04-25T17:42:36.758Z,25.30
2019-04-25T17:47:51.672Z,21.52
2019-04-25T17:52:46.267Z,15.13
2019-04-25T17:57:50.186Z,20.45
2019-04-25T18:02:59.015Z,17.92
2019-04-25T18:07:59.719Z,35.43
2019-04-25T18:13:04.543Z,56.35
2019-04-25T18:18:15.861Z,35.48
2019-04-25T18:23:30.219Z,50.10
2019-04-25T18:28:41.768Z,47.88
2019-04-25T18:33:45.972Z,25.70
2019-04-25T18:39:03.448Z,18.85
2019-04-25T18:44:08.900Z,18.12
2019-04-25T18:49:12.824Z,37.10
2019-04-25T18:54:21.488Z,34.73
2019-04-25T18:59:29.811Z,52.30
2019-04-25T19:04:51.586Z,22.93
2019-04-25T19:09:55.600Z,20.50
2019-04-25T19:15:01.341Z,25.32
2019-04-25T19:20:06.359Z,21.37
2019-04-25T19:25:10.850Z,18.82
2019-04-25T19:30:16.291Z,25.57
2019-04-25T19:35:20.229Z,22.73
2019-04-25T19:40:25.845Z,26.97
2019-04-25T19:45:29.771Z,16.97
2019-04-25T19:50:33.697Z,22.60
2019-04-25T19:55:37.647Z,12.70
2019-04-25T20:00:43.246Z,14.23
2019-04-25T20:06:05.659Z,14.53
2019-04-25T20:11:17.358Z,16.00
2019-04-25T20:16:21.552Z,12.18
2019-04-25T20:21:25.451Z,17.25
2019-04-25T20:26:29.364Z,12.78
2019-04-25T20:31:33.275Z,13.58
2019-04-25T20:36:37.287Z,20.70
2019-04-25T20:41:41.239Z,15.18
2019-04-25T20:46:46.648Z,15.32
2019-04-25T20:51:50.685Z,24.07
2019-04-25T20:56:55.142Z,32.20
2019-04-25T21:01:59.363Z,36.58
2019-04-25T21:07:03.334Z,29.48
2019-04-25T21:12:07.777Z,30.25
2019-04-25T21:17:13.206Z,32.63
2019-04-25T21:22:17.090Z,20.82
2019-04-25T21:27:20.983Z,24.25
2019-04-25T21:32:25.084Z,25.48
2019-04-25T21:37:29.357Z,22.93
2019-04-25T21:42:35.111Z,27.50
2019-04-25T21:47:39.345Z,23.02
2019-04-25T21:52:43.559Z,29.60
2019-04-25T21:57:47.809Z,25.60
2019-04-25T22:02:51.932Z,23.50
2019-04-25T22:07:56.223Z,22.80
2019-04-25T22:13:11.403Z,27.98
2019-04-25T22:18:06.682Z,24.92
2019-04-25T22:23:10.811Z,27.22
2019-04-25T22:28:15.147Z,25.65
2019-04-25T22:33:20.741Z,27.77
2019-04-25T22:38:24.688Z,27.65
2019-04-25T22:43:30.216Z,24.55
2019-04-25T22:48:49.183Z,23.32
2019-04-25T22:53:53.104Z,24.90
2019-04-25T22:58:57.028Z,23.62
2019-04-25T23:04:08.519Z,23.62
2019-04-25T23:09:13.513Z,23.55
2019-04-25T23:14:17.518Z,23.07
2019-04-25T23:19:21.452Z,25.17
2019-04-25T23:24:27.316Z,25.90
2019-04-25T23:29:31.407Z,24.32
2019-04-25T23:34:35.284Z,20.70
2019-04-25T23:39:39.165Z,25.32
2019-04-25T23:44:43.049Z,24.32
2019-04-25T23:49:46.929Z,20.50
2019-04-25T23:54:51.134Z,23.07
2019-04-25T23:59:55.513Z,20.40
